Time;durP1;ratioP1;P1;durP2;ratioP2;P2;SDS_P1;SDS_P2;PMS_P1;PMS_P2;Temp;Humidity;BMP_temperature;BMP_pressure;BME280_temperature;BME280_humidity;BME280_pressure;Samples;Min_cycle;Max_cycle;Signal;HPM_P1;HPM_P2
2022/05/11 18:15:25;;;;;;;16.05;4.00;;;;;;;19.94;48.28;100757.13;5143752;27;20409;-78
2022/05/11 18:17:52;;;;;;;19.55;3.75;;;;;;;19.88;47.87;100766.88;5144534;27;20033;-78
2022/05/11 18:20:20;;;;;;;8.25;3.20;;;;;;;19.78;47.81;100765.34;5114009;27;20436;-78
2022/05/11 18:22:46;;;;;;;10.05;3.13;;;;;;;19.70;48.32;100760.75;5134465;27;20031;-78
2022/05/11 18:25:14;;;;;;;12.00;3.38;;;;;;;19.64;49.03;100762.31;5115677;28;20084;-78
2022/05/11 18:27:40;;;;;;;12.27;2.85;;;;;;;19.57;48.35;100761.31;5129172;28;20023;-78
2022/05/11 18:30:07;;;;;;;11.52;3.35;;;;;;;19.53;48.29;100768.13;5140498;27;20061;-78
2022/05/11 18:32:32;;;;;;;13.68;3.50;;;;;;;19.46;49.05;100759.81;5093637;28;20143;-78
2022/05/11 18:34:57;;;;;;;20.05;3.45;;;;;;;19.42;48.63;100765.78;5129992;27;20473;-77
2022/05/11 18:37:23;;;;;;;16.15;3.47;;;;;;;19.32;49.39;100774.97;5128627;28;20486;-79
2022/05/11 18:39:48;;;;;;;15.15;3.53;;;;;;;19.23;49.27;100776.00;5112945;27;20454;-78
2022/05/11 18:42:15;;;;;;;12.82;3.28;;;;;;;19.15;49.03;100779.59;5128886;27;20023;-78
2022/05/11 18:44:40;;;;;;;9.32;3.10;;;;;;;19.09;49.09;100780.25;5129087;28;20011;-78
2022/05/11 18:47:06;;;;;;;11.32;3.10;;;;;;;19.03;49.38;100778.22;5128766;28;20030;-78
2022/05/11 18:49:31;;;;;;;13.40;3.38;;;;;;;18.98;50.32;100778.72;5095122;27;20027;-78
2022/05/11 18:51:56;;;;;;;13.43;3.17;;;;;;;18.96;49.17;100786.22;5132897;27;20027;-78
2022/05/11 18:54:23;;;;;;;13.23;2.85;;;;;;;18.93;48.74;100782.97;5128787;28;20117;-77
2022/05/11 18:56:49;;;;;;;14.02;3.08;;;;;;;18.86;49.87;100783.66;5127715;28;20038;-77
2022/05/11 18:59:14;;;;;;;13.70;3.58;;;;;;;18.80;49.26;100781.59;5140406;27;20359;-78
2022/05/11 19:01:40;;;;;;;11.23;3.63;;;;;;;18.78;49.64;100783.59;5127361;27;20054;-77
2022/05/11 19:04:05;;;;;;;9.80;2.90;;;;;;;18.75;49.77;100778.50;5128580;27;20031;-77
2022/05/11 19:06:30;;;;;;;9.45;2.75;;;;;;;18.73;50.19;100769.66;5097899;28;20038;-77
2022/05/11 19:08:55;;;;;;;11.50;2.58;;;;;;;18.72;50.11;100773.38;5091252;27;20035;-78
2022/05/11 19:11:21;;;;;;;10.15;2.83;;;;;;;18.71;49.46;100781.72;5115251;27;20023;-78
2022/05/11 19:13:46;;;;;;;9.93;2.53;;;;;;;18.68;51.04;100772.00;5091610;28;20503;-77
2022/05/11 19:16:12;;;;;;;14.77;2.90;;;;;;;18.63;50.73;100771.69;5115955;28;20043;-78
2022/05/11 19:18:37;;;;;;;6.88;2.58;;;;;;;18.62;50.58;100761.81;5101495;27;20061;-77
2022/05/11 19:21:03;;;;;;;10.35;3.10;;;;;;;18.61;50.22;100765.53;5108792;27;20039;-77
2022/05/11 19:23:28;;;;;;;9.35;2.67;;;;;;;18.60;50.53;100761.13;5092219;28;20015;-77
2022/05/11 19:25:57;;;;;;;7.20;2.60;;;;;;;18.60;50.82;100761.97;5110224;28;20029;-77
2022/05/11 19:28:26;;;;;;;7.93;2.97;;;;;;;18.57;51.14;100761.47;5102732;28;20110;-77
2022/05/11 19:30:55;;;;;;;7.82;2.70;;;;;;;18.51;51.53;100763.81;5092207;28;20024;-77
2022/05/11 19:33:20;;;;;;;12.63;2.83;;;;;;;18.51;52.77;100762.97;5100537;28;20031;-78
2022/05/11 19:35:46;;;;;;;9.05;2.85;;;;;;;18.41;53.50;100771.28;5096111;27;20617;-78
2022/05/11 19:38:12;;;;;;;14.90;2.95;;;;;;;18.39;52.35;100773.34;5105550;27;20023;-77
2022/05/11 19:40:38;;;;;;;12.27;2.80;;;;;;;18.33;52.08;100771.25;5085611;27;20331;-77
2022/05/11 19:43:04;;;;;;;12.18;2.72;;;;;;;18.29;52.53;100792.50;5085802;28;20019;-77
2022/05/11 19:45:30;;;;;;;11.15;2.47;;;;;;;18.29;52.11;100786.22;5083533;28;20470;-77
2022/05/11 19:47:58;;;;;;;13.85;3.08;;;;;;;18.28;52.75;100789.94;5084297;27;20114;-77
2022/05/11 19:50:23;;;;;;;9.68;2.58;;;;;;;18.25;53.58;100771.25;5104398;28;20050;-77
2022/05/11 19:52:49;;;;;;;11.05;3.05;;;;;;;18.27;52.72;100794.56;5080325;28;20467;-77
2022/05/11 19:55:15;;;;;;;12.13;2.63;;;;;;;18.23;53.13;100819.50;5079628;28;20093;-77
2022/05/11 19:57:42;;;;;;;6.97;2.70;;;;;;;18.23;53.11;100808.63;5076948;28;20052;-78
2022/05/11 20:00:11;;;;;;;11.25;2.58;;;;;;;18.15;53.86;100802.13;5109369;28;20544;-78
2022/05/11 20:02:37;;;;;;;8.80;2.55;;;;;;;18.19;52.99;100801.81;5108534;28;20110;-78
2022/05/11 20:05:04;;;;;;;11.60;2.65;;;;;;;18.16;54.40;100809.28;5088734;28;20593;-78
2022/05/11 20:07:30;;;;;;;12.48;3.10;;;;;;;18.13;53.67;100804.16;5094516;28;20107;-78
2022/05/11 20:09:56;;;;;;;8.75;2.85;;;;;;;18.10;53.37;100807.22;5107203;28;20019;-78
2022/05/11 20:12:22;;;;;;;11.60;2.60;;;;;;;18.10;54.12;100804.50;5098695;28;20051;-78
2022/05/11 20:14:47;;;;;;;14.27;2.95;;;;;;;18.07;53.94;100815.72;5097303;27;20443;-77
2022/05/11 20:17:12;;;;;;;7.35;2.40;;;;;;;18.06;54.84;100818.59;5102876;27;20190;-77
2022/05/11 20:19:38;;;;;;;11.10;2.83;;;;;;;18.04;54.40;100834.19;5106637;27;20035;-77
2022/05/11 20:22:04;;;;;;;13.07;3.05;;;;;;;18.04;56.25;100831.47;5108697;27;20038;-77
2022/05/11 20:24:29;;;;;;;7.60;2.45;;;;;;;18.01;56.30;100840.84;5105419;27;20050;-77
2022/05/11 20:26:54;;;;;;;5.30;2.42;;;;;;;18.01;56.53;100834.53;5104562;27;20134;-77
2022/05/11 20:29:20;;;;;;;12.57;2.42;;;;;;;17.96;58.21;100829.56;5107103;27;20027;-77
2022/05/11 20:37:18;;;;;;;11.25;2.50;;;;;;;17.87;60.86;100846.84;5102643;27;20091;-77
2022/05/11 20:39:44;;;;;;;5.43;2.25;;;;;;;17.80;61.02;100847.47;5113910;27;20037;-77
2022/05/11 20:42:09;;;;;;;9.35;2.95;;;;;;;17.77;59.90;100841.50;5091166;27;20456;-77
2022/05/11 20:44:35;;;;;;;8.60;2.72;;;;;;;17.72;59.31;100846.56;5110840;27;20063;-77
2022/05/11 20:47:00;;;;;;;12.25;2.58;;;;;;;17.67;60.02;100849.75;5110902;27;20462;-77
2022/05/11 20:49:25;;;;;;;9.27;3.15;;;;;;;17.63;59.52;100854.66;5090933;28;20077;-77
2022/05/11 20:51:51;;;;;;;12.10;2.88;;;;;;;17.57;59.39;100849.88;5107717;27;20464;-77
2022/05/11 20:54:17;;;;;;;11.85;2.72;;;;;;;17.51;59.16;100861.38;5107373;27;20054;-77
2022/05/11 20:56:43;;;;;;;8.10;2.85;;;;;;;17.46;60.16;100869.13;5108961;27;20023;-78
2022/05/11 20:59:08;;;;;;;10.00;2.45;;;;;;;17.43;59.88;100881.16;5108241;27;20042;-77
2022/05/11 21:01:33;;;;;;;11.77;3.03;;;;;;;17.42;59.09;100895.78;5089186;27;20031;-77
2022/05/11 21:03:59;;;;;;;10.57;3.22;;;;;;;17.42;58.91;100901.22;5106281;27;20023;-78
2022/05/11 21:06:25;;;;;;;14.43;3.42;;;;;;;17.40;60.44;100910.50;5086816;27;21097;-78
2022/05/11 21:08:50;;;;;;;13.60;3.22;;;;;;;17.35;61.06;100920.97;5110163;27;20043;-77
2022/05/11 21:11:16;;;;;;;10.63;3.60;;;;;;;17.29;61.41;100912.47;5101309;27;20038;-78
2022/05/11 21:13:43;;;;;;;19.67;3.35;;;;;;;17.17;62.85;100916.38;5081288;28;20184;-77
2022/05/11 21:16:10;;;;;;;11.45;3.33;;;;;;;17.07;63.48;100905.63;5107976;28;20055;-77
2022/05/11 21:18:35;;;;;;;16.83;3.83;;;;;;;17.03;63.77;100900.63;5083960;27;20314;-77
2022/05/11 21:21:00;;;;;;;16.17;3.47;;;;;;;16.91;64.40;100890.00;5102874;27;20038;-77
2022/05/11 21:23:26;;;;;;;13.23;3.70;;;;;;;16.81;64.78;100905.47;5107409;27;20114;-77
2022/05/11 21:25:51;;;;;;;16.65;3.53;;;;;;;16.80;65.02;100917.31;5112056;27;20031;-77
2022/05/11 21:28:16;;;;;;;11.43;3.47;;;;;;;16.71;65.51;100935.38;5082493;27;20336;-77
2022/05/11 21:30:42;;;;;;;15.35;3.60;;;;;;;16.66;66.07;100926.84;5104292;27;20039;-77
2022/05/11 21:33:08;;;;;;;17.17;3.78;;;;;;;16.64;66.12;100938.84;5108060;27;20167;-77
2022/05/11 21:35:37;;;;;;;13.13;4.07;;;;;;;16.66;66.37;100944.97;5109219;27;20124;-77
2022/05/11 21:38:03;;;;;;;16.45;3.58;;;;;;;16.63;66.44;100929.81;5108801;27;20024;-77
2022/05/11 21:40:30;;;;;;;15.05;3.45;;;;;;;16.56;67.15;100931.44;5101556;27;20058;-77
2022/05/11 21:42:55;;;;;;;9.27;3.80;;;;;;;16.52;67.64;100941.75;5103378;27;20548;-77
2022/05/11 21:45:21;;;;;;;12.55;3.42;;;;;;;16.48;67.29;100934.91;5087131;28;20037;-77
2022/05/11 21:47:46;;;;;;;15.18;3.22;;;;;;;16.44;67.47;100944.34;5084749;27;20046;-77
2022/05/11 21:50:18;;;;;;;14.38;3.47;;;;;;;16.38;67.64;100939.50;5083225;28;20384;-77
2022/05/11 21:52:43;;;;;;;14.50;2.95;;;;;;;16.35;67.71;100945.22;5084219;27;20081;-77
2022/05/11 21:55:10;;;;;;;13.98;3.15;;;;;;;16.33;67.66;100960.81;5104108;27;20106;-77
2022/05/11 21:57:45;;;;;;;14.63;3.00;;;;;;;16.25;67.65;100965.09;5084793;28;20125;-77
2022/05/11 22:00:22;;;;;;;9.55;2.65;;;;;;;16.18;67.03;100971.25;5090627;28;20038;-77
2022/05/11 22:02:51;;;;;;;11.07;2.88;;;;;;;16.06;67.96;100978.69;5104412;28;20095;-77
2022/05/11 22:05:17;;;;;;;9.98;2.80;;;;;;;15.97;68.58;100990.41;5108482;28;20024;-77
2022/05/11 22:07:42;;;;;;;9.00;2.25;;;;;;;15.93;68.79;100991.69;5068553;28;20654;-77
2022/05/11 22:10:08;;;;;;;13.52;3.30;;;;;;;15.84;69.21;100997.00;5101567;28;20386;-77
2022/05/11 22:12:34;;;;;;;11.63;2.50;;;;;;;15.75;69.69;100995.09;5084729;28;20096;-77
2022/05/11 22:14:59;;;;;;;9.80;2.88;;;;;;;15.70;69.88;101000.09;5085538;28;20047;-77
2022/05/11 22:17:24;;;;;;;13.05;3.65;;;;;;;15.68;69.44;100989.41;5104287;28;20023;-77
2022/05/11 22:19:50;;;;;;;12.60;2.92;;;;;;;15.61;69.55;101001.81;5102991;28;20544;-78
2022/05/11 22:22:15;;;;;;;9.80;2.95;;;;;;;15.57;69.81;101011.22;5085495;28;20163;-77
2022/05/11 22:24:40;;;;;;;11.13;3.45;;;;;;;15.47;69.79;101015.75;5089226;28;20126;-77
2022/05/11 22:27:05;;;;;;;10.88;3.33;;;;;;;15.45;69.66;101006.94;5090847;28;20030;-78
2022/05/11 22:29:31;;;;;;;11.32;2.97;;;;;;;15.40;69.77;101025.44;5109199;28;20104;-78
2022/05/11 22:31:57;;;;;;;19.05;3.85;;;;;;;15.34;70.44;101029.56;5110444;28;20367;-77
2022/05/11 22:34:22;;;;;;;11.02;3.22;;;;;;;15.35;70.49;101034.84;5100916;28;20039;-77
2022/05/11 22:36:51;;;;;;;11.82;3.83;;;;;;;15.34;70.15;101025.03;5084538;28;20020;-77
2022/05/11 22:39:16;;;;;;;15.43;4.60;;;;;;;15.33;70.49;101034.13;5063205;28;20040;-77
2022/05/11 22:41:42;;;;;;;11.75;3.88;;;;;;;15.30;70.35;101036.25;5079810;28;20032;-78
2022/05/11 22:44:07;;;;;;;13.38;4.32;;;;;;;15.28;70.35;101039.09;5081111;28;20206;-77
2022/05/11 22:46:32;;;;;;;16.10;4.38;;;;;;;15.19;70.78;101046.19;5081663;28;20036;-77
2022/05/11 22:48:57;;;;;;;14.68;3.88;;;;;;;15.10;71.14;101038.91;5101161;28;20019;-78
2022/05/11 22:51:23;;;;;;;12.98;4.22;;;;;;;15.07;70.81;101041.03;5088060;28;20055;-78
2022/05/11 22:53:48;;;;;;;15.10;4.70;;;;;;;14.99;71.29;101045.28;5101805;28;20363;-77
2022/05/11 22:56:13;;;;;;;14.60;4.30;;;;;;;14.97;71.37;101046.41;5067358;28;20162;-77
2022/05/11 22:58:39;;;;;;;13.27;3.92;;;;;;;14.90;71.60;101058.78;5076566;28;20028;-78
2022/05/11 23:01:05;;;;;;;16.02;4.60;;;;;;;14.87;71.90;101076.13;5098103;28;20031;-77
2022/05/11 23:03:31;;;;;;;15.40;4.40;;;;;;;14.84;71.67;101074.53;5085287;28;20446;-77
2022/05/11 23:05:57;;;;;;;15.43;4.95;;;;;;;14.85;71.67;101078.13;5083076;28;20055;-77
2022/05/11 23:08:22;;;;;;;11.07;4.13;;;;;;;14.83;71.35;101080.09;5095952;28;20028;-77
2022/05/11 23:10:48;;;;;;;11.93;3.65;;;;;;;14.82;70.96;101097.34;5106745;28;20419;-77
2022/05/11 23:13:13;;;;;;;12.15;3.63;;;;;;;14.84;70.83;101122.41;5092460;28;20172;-77
2022/05/11 23:15:42;;;;;;;12.95;3.80;;;;;;;14.83;71.05;101124.25;5090056;28;20100;-77
2022/05/11 23:18:10;;;;;;;15.90;4.22;;;;;;;14.85;70.72;101134.94;5078564;28;20159;-77
2022/05/11 23:20:37;;;;;;;13.50;3.97;;;;;;;14.82;70.08;101137.94;5085028;28;20049;-77
2022/05/11 23:23:03;;;;;;;12.75;4.00;;;;;;;14.78;69.56;101131.06;5098754;28;20019;-78
2022/05/11 23:25:29;;;;;;;14.10;4.30;;;;;;;14.74;69.00;101132.31;5102906;28;20058;-77
2022/05/11 23:27:56;;;;;;;11.10;3.58;;;;;;;14.70;69.12;101144.38;5087542;28;20030;-78
2022/05/11 23:30:23;;;;;;;13.30;3.30;;;;;;;14.61;69.86;101148.69;5086862;28;20035;-77
2022/05/11 23:32:50;;;;;;;10.75;3.38;;;;;;;14.60;68.58;101153.25;5103848;28;20028;-77
2022/05/11 23:35:16;;;;;;;11.30;3.50;;;;;;;14.54;67.90;101161.91;5112344;28;20020;-77
2022/05/11 23:37:42;;;;;;;10.68;2.90;;;;;;;14.48;67.64;101173.22;5061489;28;20127;-77
2022/05/11 23:40:09;;;;;;;7.45;2.53;;;;;;;14.40;67.91;101179.28;5100643;28;20024;-77
2022/05/11 23:42:35;;;;;;;10.80;3.03;;;;;;;14.31;67.09;101180.91;5079626;28;20024;-77
2022/05/11 23:45:01;;;;;;;10.40;2.60;;;;;;;14.29;67.00;101182.03;5110881;28;20039;-77
2022/05/11 23:47:26;;;;;;;11.32;3.05;;;;;;;14.26;66.82;101185.88;5102409;27;20051;-77
2022/05/11 23:49:52;;;;;;;9.27;2.60;;;;;;;14.19;66.86;101195.47;5091883;28;20071;-77
2022/05/11 23:52:17;;;;;;;8.10;2.80;;;;;;;14.12;67.42;101199.66;5106990;28;20027;-77
2022/05/11 23:54:44;;;;;;;8.98;2.53;;;;;;;14.03;67.39;101209.41;5076984;27;21132;-77
2022/05/11 23:57:11;;;;;;;10.32;2.75;;;;;;;13.91;68.18;101197.75;5090783;27;20556;-77
2022/05/11 23:59:37;;;;;;;8.10;2.50;;;;;;;13.83;68.18;101200.22;5106117;27;20091;-77
